KPWK

Chicago Executive Airport

Chicago/Prospect Heights/Wheeling, Illinois, USA
METAR KPWK 231352Z 00000KT 10SM CLR 18/14 A3022 RMK AO2 SLP234 T01830144
Observed Flight Rules
May-23 @ 13:52 UTC (an hour ago) Visual Flight Rules
Visibility Clouds
10 miles
  • Clear skies
Temperatures Readings
Current 18°C / 64°F
Dewpoint 14°C / 57°F
Humidity 78%
Altimeter 30.22" Hg
Pressure 1023.4 hPa
Elevation 203
METAR KPWK 231352Z 00000KT 10SM CLR 18/14 A3022 RMK AO2 SLP234 T01830144
Observed Flight Rules
May-23 @ 13:52 UTC
(an hour ago)
VFR
Clouds
  • Clear skies
Temperature Dewpoint
18°C / 64°F 14°C / 57°F
Humidity Altimeter Pressure
78% 30.22" Hg 1023.4 hPa